sensor_id;sensor_type;location;lat;lon;timestamp;P1;durP1;ratioP1;P2;durP2;ratioP2
3831;SDS011;12460;42.662;23.288;2023-01-28T00:02:46;7.10;;;5.47;;
3831;SDS011;12460;42.662;23.288;2023-01-28T00:17:51;6.63;;;5.93;;
3831;SDS011;12460;42.662;23.288;2023-01-28T00:32:55;6.10;;;5.47;;
3831;SDS011;12460;42.662;23.288;2023-01-28T00:48:00;6.17;;;5.60;;
3831;SDS011;12460;42.662;23.288;2023-01-28T01:03:04;6.53;;;5.83;;
3831;SDS011;12460;42.662;23.288;2023-01-28T01:18:09;5.23;;;4.73;;
3831;SDS011;12460;42.662;23.288;2023-01-28T01:33:14;8.47;;;6.07;;
3831;SDS011;12460;42.662;23.288;2023-01-28T01:48:23;5.73;;;5.13;;
3831;SDS011;12460;42.662;23.288;2023-01-28T02:03:43;6.17;;;5.57;;
3831;SDS011;12460;42.662;23.288;2023-01-28T02:18:51;6.00;;;5.37;;
3831;SDS011;12460;42.662;23.288;2023-01-28T02:49:03;5.83;;;5.20;;
3831;SDS011;12460;42.662;23.288;2023-01-28T03:04:16;7.60;;;5.80;;
3831;SDS011;12460;42.662;23.288;2023-01-28T03:19:23;6.20;;;5.60;;
3831;SDS011;12460;42.662;23.288;2023-01-28T03:34:47;6.50;;;5.70;;
3831;SDS011;12460;42.662;23.288;2023-01-28T03:50:12;6.60;;;5.40;;
3831;SDS011;12460;42.662;23.288;2023-01-28T04:05:31;7.23;;;5.33;;
3831;SDS011;12460;42.662;23.288;2023-01-28T04:20:35;6.57;;;5.83;;
3831;SDS011;12460;42.662;23.288;2023-01-28T04:35:41;6.30;;;5.70;;
3831;SDS011;12460;42.662;23.288;2023-01-28T04:50:55;6.10;;;5.50;;
3831;SDS011;12460;42.662;23.288;2023-01-28T05:06:22;6.80;;;5.63;;
3831;SDS011;12460;42.662;23.288;2023-01-28T05:21:32;7.07;;;5.90;;
3831;SDS011;12460;42.662;23.288;2023-01-28T05:36:43;6.60;;;5.90;;
3831;SDS011;12460;42.662;23.288;2023-01-28T05:52:01;6.97;;;6.00;;
3831;SDS011;12460;42.662;23.288;2023-01-28T06:07:06;6.20;;;5.60;;
3831;SDS011;12460;42.662;23.288;2023-01-28T06:22:13;7.60;;;6.00;;
3831;SDS011;12460;42.662;23.288;2023-01-28T06:37:18;7.77;;;5.90;;
3831;SDS011;12460;42.662;23.288;2023-01-28T06:52:42;11.23;;;7.43;;
3831;SDS011;12460;42.662;23.288;2023-01-28T07:07:46;10.60;;;7.83;;
3831;SDS011;12460;42.662;23.288;2023-01-28T07:22:50;7.67;;;6.53;;
3831;SDS011;12460;42.662;23.288;2023-01-28T07:37:56;9.20;;;7.23;;
3831;SDS011;12460;42.662;23.288;2023-01-28T07:53:02;9.20;;;7.50;;
3831;SDS011;12460;42.662;23.288;2023-01-28T08:08:08;8.93;;;7.20;;
3831;SDS011;12460;42.662;23.288;2023-01-28T08:23:15;12.27;;;8.03;;
3831;SDS011;12460;42.662;23.288;2023-01-28T08:38:20;10.50;;;8.40;;
3831;SDS011;12460;42.662;23.288;2023-01-28T08:53:26;12.40;;;8.90;;
3831;SDS011;12460;42.662;23.288;2023-01-28T09:08:31;10.97;;;8.30;;
3831;SDS011;12460;42.662;23.288;2023-01-28T09:23:36;8.17;;;7.00;;
3831;SDS011;12460;42.662;23.288;2023-01-28T09:38:41;10.27;;;8.53;;
3831;SDS011;12460;42.662;23.288;2023-01-28T09:53:46;10.27;;;7.93;;
3831;SDS011;12460;42.662;23.288;2023-01-28T10:09:01;11.43;;;8.53;;
3831;SDS011;12460;42.662;23.288;2023-01-28T10:24:29;12.80;;;8.10;;
3831;SDS011;12460;42.662;23.288;2023-01-28T10:39:36;12.27;;;8.57;;
3831;SDS011;12460;42.662;23.288;2023-01-28T10:54:41;9.40;;;8.40;;
3831;SDS011;12460;42.662;23.288;2023-01-28T11:09:46;10.77;;;8.60;;
3831;SDS011;12460;42.662;23.288;2023-01-28T11:24:50;15.60;;;10.60;;
3831;SDS011;12460;42.662;23.288;2023-01-28T11:40:15;8.23;;;7.33;;
3831;SDS011;12460;42.662;23.288;2023-01-28T12:10:54;11.27;;;8.60;;
3831;SDS011;12460;42.662;23.288;2023-01-28T12:41:14;11.03;;;8.23;;
3831;SDS011;12460;42.662;23.288;2023-01-28T12:56:22;12.60;;;8.47;;
3831;SDS011;12460;42.662;23.288;2023-01-28T13:11:31;11.87;;;9.10;;
3831;SDS011;12460;42.662;23.288;2023-01-28T13:26:41;14.10;;;9.90;;
3831;SDS011;12460;42.662;23.288;2023-01-28T13:41:49;13.20;;;10.47;;
3831;SDS011;12460;42.662;23.288;2023-01-28T14:12:14;10.03;;;8.50;;
3831;SDS011;12460;42.662;23.288;2023-01-28T14:27:26;12.17;;;8.83;;
3831;SDS011;12460;42.662;23.288;2023-01-28T14:42:39;11.17;;;8.53;;
3831;SDS011;12460;42.662;23.288;2023-01-28T14:57:46;12.27;;;9.30;;
3831;SDS011;12460;42.662;23.288;2023-01-28T15:13:03;9.43;;;8.13;;
3831;SDS011;12460;42.662;23.288;2023-01-28T15:28:11;11.03;;;8.90;;
3831;SDS011;12460;42.662;23.288;2023-01-28T15:43:23;13.67;;;9.50;;
3831;SDS011;12460;42.662;23.288;2023-01-28T15:58:29;12.93;;;10.23;;
3831;SDS011;12460;42.662;23.288;2023-01-28T16:13:40;14.90;;;10.93;;
3831;SDS011;12460;42.662;23.288;2023-01-28T16:28:46;14.13;;;9.67;;
3831;SDS011;12460;42.662;23.288;2023-01-28T16:43:50;15.03;;;10.77;;
3831;SDS011;12460;42.662;23.288;2023-01-28T16:58:55;12.30;;;10.40;;
3831;SDS011;12460;42.662;23.288;2023-01-28T17:13:59;11.10;;;8.70;;
3831;SDS011;12460;42.662;23.288;2023-01-28T17:29:05;10.37;;;7.23;;
3831;SDS011;12460;42.662;23.288;2023-01-28T17:44:12;12.17;;;7.90;;
3831;SDS011;12460;42.662;23.288;2023-01-28T17:59:17;12.07;;;8.20;;
3831;SDS011;12460;42.662;23.288;2023-01-28T18:14:22;14.93;;;10.23;;
3831;SDS011;12460;42.662;23.288;2023-01-28T18:29:27;15.30;;;9.83;;
3831;SDS011;12460;42.662;23.288;2023-01-28T18:44:32;10.23;;;7.80;;
3831;SDS011;12460;42.662;23.288;2023-01-28T18:59:36;9.73;;;7.03;;
3831;SDS011;12460;42.662;23.288;2023-01-28T19:14:40;10.57;;;8.37;;
3831;SDS011;12460;42.662;23.288;2023-01-28T19:29:45;11.90;;;9.10;;
3831;SDS011;12460;42.662;23.288;2023-01-28T19:44:50;11.27;;;8.00;;
3831;SDS011;12460;42.662;23.288;2023-01-28T19:59:55;9.73;;;7.63;;
3831;SDS011;12460;42.662;23.288;2023-01-28T20:14:59;12.60;;;8.93;;
3831;SDS011;12460;42.662;23.288;2023-01-28T20:30:04;11.20;;;9.10;;
3831;SDS011;12460;42.662;23.288;2023-01-28T20:45:09;9.63;;;7.87;;
3831;SDS011;12460;42.662;23.288;2023-01-28T21:00:14;13.23;;;9.17;;
3831;SDS011;12460;42.662;23.288;2023-01-28T21:15:19;10.97;;;8.50;;
3831;SDS011;12460;42.662;23.288;2023-01-28T21:30:24;10.40;;;8.40;;
3831;SDS011;12460;42.662;23.288;2023-01-28T21:45:29;12.53;;;8.90;;
3831;SDS011;12460;42.662;23.288;2023-01-28T22:00:34;12.97;;;8.10;;
3831;SDS011;12460;42.662;23.288;2023-01-28T22:15:39;10.97;;;8.23;;
3831;SDS011;12460;42.662;23.288;2023-01-28T22:30:43;14.37;;;9.53;;
3831;SDS011;12460;42.662;23.288;2023-01-28T22:45:48;11.73;;;8.60;;
3831;SDS011;12460;42.662;23.288;2023-01-28T23:01:01;11.77;;;7.43;;
3831;SDS011;12460;42.662;23.288;2023-01-28T23:16:06;11.30;;;7.70;;
3831;SDS011;12460;42.662;23.288;2023-01-28T23:31:31;9.87;;;7.33;;
3831;SDS011;12460;42.662;23.288;2023-01-28T23:46:35;10.90;;;8.07;;
